Jhelum, Pakistan

4:28 PM PKT on April 19, 2015 (GMT +0500)
Chacklala International | | Change Station
CLOSE
Current Station
Airport
Location: Islamabad,
Elevation: 1667 ft
Nearby Weather Stations

Elev 1667 ft 33.62 °N, 73.10 °E | Updated 28 minutes ago

Mostly Cloudy
Mostly Cloudy
77 °F
Feels Like 77 °F
N
23
Wind Variable Wind from NE

Today
High -- | Low -- °F
--% Chance of Precip.
Yesterday
High -- | Low -- °F
Precip. -- in
5:31 AM 6:37 PM
New Moon, 1% visible
Pressure 29.71 in
Visibility 3.7 miles
Clouds Few 3000 ft
Scattered Clouds 4000 ft
Mostly Cloudy 10000 ft
Dew Point 59 °F
Humidity 54%
Rainfall 0.00 in
Snow Depth Not available.
UV 2 out of 12
Pollen Not available.
Air Quality Not available.
Flu Activity Not available.
METAR OPRN 191100Z 05020KT 6000 FEW030TCU SCT040 BKN100 25/15 Q1006.8/29.73

More Conditions Fewer Conditions

Pressure 29.71 in
Visibility 3.7 miles
Clouds Few 3000 ft
Scattered Clouds 4000 ft
Mostly Cloudy 10000 ft
Dew Point 59 °F
Humidity 54%
Rainfall 0.00 in
Snow Depth Not available.
UV 2 out of 12
Pollen Not available.
Air Quality Not available.
Flu Activity Not available.
METAR OPRN 191100Z 05020KT 6000 FEW030TCU SCT040 BKN100 25/15 Q1006.8/29.73

More Conditions Fewer Conditions

10-Day Weather Forecast

Almanac

Astronomy

Apr. 19, 2015 Rise Set
Actual Time
Civil Twilight
Nautical Twilight
Astronomical Twilight
Moon
Length of Visible Light
Length of Day
Tomorrow will be .
, % of the Moon is Illuminated

Today's Extremes

Country Highs Country Lows

Community

WunderPhotos

Upload Photos

1,814,756 photos uploaded!

WunderBlogs® & News

Nearby

Air Quality

  Air Quality AQ Index Pollutant
Not available.

Snow Depth

Station Depth Elevation

Earthquake Activity

City Distance Mag. Time & Date
Minimum magnitude displayed is 2.5.

Coastal Water Temperatures

Place Temperature

Stations

Nearby Weather Stations

Station Location Temp. Windchill Dew Point Humidity Wind Precip. Elev Updated Type